sensor_id;sensor_type;location;lat;lon;timestamp;P1;durP1;ratioP1;P2;durP2;ratioP2
52962;SDS011;38827;53.024;6.596;2022-07-21T00:00:28;8.60;;;3.50;;
52962;SDS011;38827;53.024;6.596;2022-07-21T00:02:55;6.57;;;3.70;;
52962;SDS011;38827;53.024;6.596;2022-07-21T00:07:47;7.65;;;4.82;;
52962;SDS011;38827;53.024;6.596;2022-07-21T00:10:13;9.17;;;5.23;;
52962;SDS011;38827;53.024;6.596;2022-07-21T00:12:40;9.80;;;4.07;;
52962;SDS011;38827;53.024;6.596;2022-07-21T00:15:07;7.18;;;3.45;;
52962;SDS011;38827;53.024;6.596;2022-07-21T00:17:34;7.55;;;3.85;;
52962;SDS011;38827;53.024;6.596;2022-07-21T00:20:00;7.90;;;3.90;;
52962;SDS011;38827;53.024;6.596;2022-07-21T00:22:26;5.03;;;3.42;;
52962;SDS011;38827;53.024;6.596;2022-07-21T00:24:52;5.13;;;3.43;;
52962;SDS011;38827;53.024;6.596;2022-07-21T00:27:18;7.15;;;3.67;;
52962;SDS011;38827;53.024;6.596;2022-07-21T00:29:44;9.73;;;5.20;;
52962;SDS011;38827;53.024;6.596;2022-07-21T00:32:10;6.37;;;3.87;;
52962;SDS011;38827;53.024;6.596;2022-07-21T00:34:36;7.53;;;3.73;;
52962;SDS011;38827;53.024;6.596;2022-07-21T00:37:01;8.05;;;5.43;;
52962;SDS011;38827;53.024;6.596;2022-07-21T00:39:27;5.00;;;3.63;;
52962;SDS011;38827;53.024;6.596;2022-07-21T00:41:52;7.50;;;3.90;;
52962;SDS011;38827;53.024;6.596;2022-07-21T00:44:22;6.35;;;3.90;;
52962;SDS011;38827;53.024;6.596;2022-07-21T00:46:52;8.27;;;4.75;;
52962;SDS011;38827;53.024;6.596;2022-07-21T00:49:19;6.72;;;4.05;;
52962;SDS011;38827;53.024;6.596;2022-07-21T00:51:45;6.85;;;4.10;;
52962;SDS011;38827;53.024;6.596;2022-07-21T00:54:13;6.78;;;3.92;;
52962;SDS011;38827;53.024;6.596;2022-07-21T00:56:41;5.18;;;3.72;;
52962;SDS011;38827;53.024;6.596;2022-07-21T00:59:07;6.80;;;3.90;;
52962;SDS011;38827;53.024;6.596;2022-07-21T01:01:32;6.45;;;4.05;;
52962;SDS011;38827;53.024;6.596;2022-07-21T01:04:01;9.70;;;5.25;;
52962;SDS011;38827;53.024;6.596;2022-07-21T01:06:26;7.10;;;4.00;;
52962;SDS011;38827;53.024;6.596;2022-07-21T01:08:52;9.25;;;4.75;;
52962;SDS011;38827;53.024;6.596;2022-07-21T01:11:20;7.10;;;3.60;;
52962;SDS011;38827;53.024;6.596;2022-07-21T01:13:47;5.90;;;3.70;;
52962;SDS011;38827;53.024;6.596;2022-07-21T01:16:13;6.03;;;3.95;;
52962;SDS011;38827;53.024;6.596;2022-07-21T01:18:39;6.95;;;4.28;;
52962;SDS011;38827;53.024;6.596;2022-07-21T01:21:27;7.32;;;4.28;;
52962;SDS011;38827;53.024;6.596;2022-07-21T01:26:28;6.90;;;4.50;;
52962;SDS011;38827;53.024;6.596;2022-07-21T01:28:54;10.27;;;5.63;;
52962;SDS011;38827;53.024;6.596;2022-07-21T01:31:21;8.95;;;5.55;;
52962;SDS011;38827;53.024;6.596;2022-07-21T01:33:49;7.65;;;4.80;;
52962;SDS011;38827;53.024;6.596;2022-07-21T01:36:15;7.35;;;4.30;;
52962;SDS011;38827;53.024;6.596;2022-07-21T01:38:41;7.72;;;5.65;;
52962;SDS011;38827;53.024;6.596;2022-07-21T01:41:26;5.50;;;3.97;;
52962;SDS011;38827;53.024;6.596;2022-07-21T01:43:55;6.38;;;4.07;;
52962;SDS011;38827;53.024;6.596;2022-07-21T01:48:47;11.77;;;7.23;;
52962;SDS011;38827;53.024;6.596;2022-07-21T01:51:13;7.00;;;3.97;;
52962;SDS011;38827;53.024;6.596;2022-07-21T01:53:39;7.60;;;4.00;;
52962;SDS011;38827;53.024;6.596;2022-07-21T01:56:05;10.10;;;5.18;;
52962;SDS011;38827;53.024;6.596;2022-07-21T02:00:57;5.85;;;3.83;;
52962;SDS011;38827;53.024;6.596;2022-07-21T02:03:23;6.88;;;4.40;;
52962;SDS011;38827;53.024;6.596;2022-07-21T02:05:49;7.40;;;4.30;;
52962;SDS011;38827;53.024;6.596;2022-07-21T02:08:15;7.13;;;4.53;;
52962;SDS011;38827;53.024;6.596;2022-07-21T02:10:41;7.22;;;4.18;;
52962;SDS011;38827;53.024;6.596;2022-07-21T02:13:06;12.90;;;7.32;;
52962;SDS011;38827;53.024;6.596;2022-07-21T02:15:35;11.13;;;6.63;;
52962;SDS011;38827;53.024;6.596;2022-07-21T02:18:02;12.30;;;8.03;;
52962;SDS011;38827;53.024;6.596;2022-07-21T02:20:28;9.27;;;6.20;;
52962;SDS011;38827;53.024;6.596;2022-07-21T02:25:22;9.27;;;5.80;;
52962;SDS011;38827;53.024;6.596;2022-07-21T02:27:48;7.05;;;5.00;;
52962;SDS011;38827;53.024;6.596;2022-07-21T02:30:15;6.85;;;4.47;;
52962;SDS011;38827;53.024;6.596;2022-07-21T02:32:41;9.60;;;6.53;;
52962;SDS011;38827;53.024;6.596;2022-07-21T02:35:07;12.47;;;6.77;;
52962;SDS011;38827;53.024;6.596;2022-07-21T02:37:33;7.50;;;4.70;;
52962;SDS011;38827;53.024;6.596;2022-07-21T02:39:58;5.03;;;4.13;;
52962;SDS011;38827;53.024;6.596;2022-07-21T02:42:24;7.13;;;4.00;;
52962;SDS011;38827;53.024;6.596;2022-07-21T02:44:49;9.05;;;6.55;;
52962;SDS011;38827;53.024;6.596;2022-07-21T02:47:15;12.33;;;6.87;;
52962;SDS011;38827;53.024;6.596;2022-07-21T02:49:41;10.18;;;6.57;;
52962;SDS011;38827;53.024;6.596;2022-07-21T02:52:06;11.10;;;5.97;;
52962;SDS011;38827;53.024;6.596;2022-07-21T02:54:32;10.55;;;5.68;;
52962;SDS011;38827;53.024;6.596;2022-07-21T02:56:57;9.43;;;6.30;;
52962;SDS011;38827;53.024;6.596;2022-07-21T02:59:23;10.73;;;6.37;;
52962;SDS011;38827;53.024;6.596;2022-07-21T03:01:49;8.00;;;5.77;;
52962;SDS011;38827;53.024;6.596;2022-07-21T03:04:14;8.60;;;5.50;;
52962;SDS011;38827;53.024;6.596;2022-07-21T03:06:40;14.27;;;9.37;;
52962;SDS011;38827;53.024;6.596;2022-07-21T03:11:33;9.32;;;6.28;;
52962;SDS011;38827;53.024;6.596;2022-07-21T03:13:58;7.63;;;4.47;;
52962;SDS011;38827;53.024;6.596;2022-07-21T03:16:24;12.02;;;7.82;;
52962;SDS011;38827;53.024;6.596;2022-07-21T03:18:50;6.95;;;4.80;;
52962;SDS011;38827;53.024;6.596;2022-07-21T03:21:16;7.87;;;6.03;;
52962;SDS011;38827;53.024;6.596;2022-07-21T03:23:41;7.22;;;5.20;;
52962;SDS011;38827;53.024;6.596;2022-07-21T03:26:11;6.82;;;4.85;;
52962;SDS011;38827;53.024;6.596;2022-07-21T03:28:38;8.20;;;5.28;;
52962;SDS011;38827;53.024;6.596;2022-07-21T03:31:04;8.60;;;4.95;;
52962;SDS011;38827;53.024;6.596;2022-07-21T03:33:33;11.27;;;6.40;;
52962;SDS011;38827;53.024;6.596;2022-07-21T03:35:59;9.03;;;5.20;;
52962;SDS011;38827;53.024;6.596;2022-07-21T03:38:24;8.57;;;6.57;;
52962;SDS011;38827;53.024;6.596;2022-07-21T03:40:50;8.37;;;6.43;;
52962;SDS011;38827;53.024;6.596;2022-07-21T03:43:16;7.57;;;5.10;;
52962;SDS011;38827;53.024;6.596;2022-07-21T03:45:41;7.63;;;4.90;;
52962;SDS011;38827;53.024;6.596;2022-07-21T03:48:08;6.78;;;4.75;;
52962;SDS011;38827;53.024;6.596;2022-07-21T03:50:35;5.75;;;4.20;;
52962;SDS011;38827;53.024;6.596;2022-07-21T03:53:02;9.52;;;7.60;;
52962;SDS011;38827;53.024;6.596;2022-07-21T03:55:29;7.80;;;4.68;;
52962;SDS011;38827;53.024;6.596;2022-07-21T03:58:02;7.45;;;4.88;;
52962;SDS011;38827;53.024;6.596;2022-07-21T04:00:31;6.55;;;5.25;;
52962;SDS011;38827;53.024;6.596;2022-07-21T04:03:02;7.15;;;5.15;;
52962;SDS011;38827;53.024;6.596;2022-07-21T04:05:29;6.68;;;4.85;;
52962;SDS011;38827;53.024;6.596;2022-07-21T04:07:55;5.80;;;4.15;;
52962;SDS011;38827;53.024;6.596;2022-07-21T04:10:22;5.05;;;4.47;;
52962;SDS011;38827;53.024;6.596;2022-07-21T04:12:53;6.22;;;5.07;;
52962;SDS011;38827;53.024;6.596;2022-07-21T04:15:20;8.02;;;5.30;;
52962;SDS011;38827;53.024;6.596;2022-07-21T04:17:47;6.70;;;4.77;;
52962;SDS011;38827;53.024;6.596;2022-07-21T04:20:14;4.93;;;4.20;;
52962;SDS011;38827;53.024;6.596;2022-07-21T04:22:40;10.48;;;8.88;;
52962;SDS011;38827;53.024;6.596;2022-07-21T04:25:07;11.35;;;8.20;;
52962;SDS011;38827;53.024;6.596;2022-07-21T04:27:34;5.63;;;4.78;;
52962;SDS011;38827;53.024;6.596;2022-07-21T04:30:00;6.55;;;4.50;;
52962;SDS011;38827;53.024;6.596;2022-07-21T04:32:28;12.43;;;10.65;;
52962;SDS011;38827;53.024;6.596;2022-07-21T04:34:54;10.23;;;8.75;;
52962;SDS011;38827;53.024;6.596;2022-07-21T04:37:20;8.38;;;5.03;;
52962;SDS011;38827;53.024;6.596;2022-07-21T04:39:47;13.90;;;11.98;;
52962;SDS011;38827;53.024;6.596;2022-07-21T04:42:12;13.37;;;11.13;;
52962;SDS011;38827;53.024;6.596;2022-07-21T04:44:38;19.10;;;14.32;;
52962;SDS011;38827;53.024;6.596;2022-07-21T04:47:04;16.67;;;14.20;;
52962;SDS011;38827;53.024;6.596;2022-07-21T04:49:29;18.10;;;15.43;;
52962;SDS011;38827;53.024;6.596;2022-07-21T04:51:55;12.73;;;9.87;;
52962;SDS011;38827;53.024;6.596;2022-07-21T04:54:21;17.33;;;15.47;;
52962;SDS011;38827;53.024;6.596;2022-07-21T04:56:46;7.38;;;5.68;;
52962;SDS011;38827;53.024;6.596;2022-07-21T04:59:12;8.27;;;7.40;;
52962;SDS011;38827;53.024;6.596;2022-07-21T05:01:38;14.93;;;11.98;;
52962;SDS011;38827;53.024;6.596;2022-07-21T05:04:04;18.90;;;15.95;;
52962;SDS011;38827;53.024;6.596;2022-07-21T05:06:31;19.73;;;17.63;;
52962;SDS011;38827;53.024;6.596;2022-07-21T05:08:57;8.63;;;6.43;;
52962;SDS011;38827;53.024;6.596;2022-07-21T05:11:24;14.32;;;12.77;;
52962;SDS011;38827;53.024;6.596;2022-07-21T05:13:51;12.23;;;9.88;;
52962;SDS011;38827;53.024;6.596;2022-07-21T05:16:16;16.00;;;14.10;;
52962;SDS011;38827;53.024;6.596;2022-07-21T05:18:42;9.32;;;7.70;;
52962;SDS011;38827;53.024;6.596;2022-07-21T05:21:08;7.20;;;6.43;;
52962;SDS011;38827;53.024;6.596;2022-07-21T05:23:34;7.47;;;6.78;;
52962;SDS011;38827;53.024;6.596;2022-07-21T05:25:59;13.37;;;11.93;;
52962;SDS011;38827;53.024;6.596;2022-07-21T05:28:26;7.77;;;6.97;;
52962;SDS011;38827;53.024;6.596;2022-07-21T05:30:52;15.82;;;14.15;;
52962;SDS011;38827;53.024;6.596;2022-07-21T05:33:18;12.10;;;10.43;;
52962;SDS011;38827;53.024;6.596;2022-07-21T05:35:44;15.40;;;13.77;;
52962;SDS011;38827;53.024;6.596;2022-07-21T05:38:09;21.30;;;17.63;;
52962;SDS011;38827;53.024;6.596;2022-07-21T05:40:35;18.40;;;15.43;;
52962;SDS011;38827;53.024;6.596;2022-07-21T05:43:01;9.73;;;8.20;;
52962;SDS011;38827;53.024;6.596;2022-07-21T05:45:26;20.17;;;17.37;;
52962;SDS011;38827;53.024;6.596;2022-07-21T05:47:52;14.70;;;12.67;;
52962;SDS011;38827;53.024;6.596;2022-07-21T05:50:18;17.35;;;15.55;;
52962;SDS011;38827;53.024;6.596;2022-07-21T05:52:44;24.70;;;20.13;;
52962;SDS011;38827;53.024;6.596;2022-07-21T05:55:10;20.98;;;18.50;;
52962;SDS011;38827;53.024;6.596;2022-07-21T05:57:36;24.87;;;20.93;;
52962;SDS011;38827;53.024;6.596;2022-07-21T06:02:28;20.83;;;18.23;;
52962;SDS011;38827;53.024;6.596;2022-07-21T06:04:57;22.17;;;19.63;;
52962;SDS011;38827;53.024;6.596;2022-07-21T06:07:24;14.80;;;13.20;;
52962;SDS011;38827;53.024;6.596;2022-07-21T06:09:50;9.25;;;8.30;;
52962;SDS011;38827;53.024;6.596;2022-07-21T06:12:16;20.13;;;16.77;;
52962;SDS011;38827;53.024;6.596;2022-07-21T06:14:42;16.40;;;14.67;;
52962;SDS011;38827;53.024;6.596;2022-07-21T06:17:07;19.70;;;17.13;;
52962;SDS011;38827;53.024;6.596;2022-07-21T06:19:33;18.87;;;16.70;;
52962;SDS011;38827;53.024;6.596;2022-07-21T06:21:59;14.97;;;12.97;;
52962;SDS011;38827;53.024;6.596;2022-07-21T06:24:25;12.00;;;9.43;;
52962;SDS011;38827;53.024;6.596;2022-07-21T06:26:52;12.55;;;9.73;;
52962;SDS011;38827;53.024;6.596;2022-07-21T06:29:20;11.60;;;10.40;;
52962;SDS011;38827;53.024;6.596;2022-07-21T06:31:50;21.80;;;19.58;;
52962;SDS011;38827;53.024;6.596;2022-07-21T06:34:15;19.93;;;17.33;;
52962;SDS011;38827;53.024;6.596;2022-07-21T06:36:41;22.80;;;20.40;;
52962;SDS011;38827;53.024;6.596;2022-07-21T06:39:08;19.23;;;17.23;;
52962;SDS011;38827;53.024;6.596;2022-07-21T06:41:33;15.73;;;13.97;;
52962;SDS011;38827;53.024;6.596;2022-07-21T06:43:59;22.93;;;19.37;;
52962;SDS011;38827;53.024;6.596;2022-07-21T06:46:27;16.17;;;13.55;;
52962;SDS011;38827;53.024;6.596;2022-07-21T06:48:52;22.07;;;19.77;;
52962;SDS011;38827;53.024;6.596;2022-07-21T06:51:18;24.40;;;20.43;;
52962;SDS011;38827;53.024;6.596;2022-07-21T06:53:44;16.17;;;11.00;;
52962;SDS011;38827;53.024;6.596;2022-07-21T06:56:09;18.50;;;16.33;;
52962;SDS011;38827;53.024;6.596;2022-07-21T06:58:35;15.57;;;12.88;;
52962;SDS011;38827;53.024;6.596;2022-07-21T07:01:01;19.10;;;15.68;;
52962;SDS011;38827;53.024;6.596;2022-07-21T07:03:26;20.70;;;17.05;;
52962;SDS011;38827;53.024;6.596;2022-07-21T07:05:52;19.37;;;17.40;;
52962;SDS011;38827;53.024;6.596;2022-07-21T07:08:18;13.07;;;11.40;;
52962;SDS011;38827;53.024;6.596;2022-07-21T07:10:44;11.10;;;10.03;;
52962;SDS011;38827;53.024;6.596;2022-07-21T07:13:11;20.70;;;16.40;;
52962;SDS011;38827;53.024;6.596;2022-07-21T07:15:38;21.35;;;17.13;;
52962;SDS011;38827;53.024;6.596;2022-07-21T07:18:05;19.58;;;17.42;;
52962;SDS011;38827;53.024;6.596;2022-07-21T07:20:30;15.53;;;12.60;;
52962;SDS011;38827;53.024;6.596;2022-07-21T07:22:56;85.88;;;31.40;;
52962;SDS011;38827;53.024;6.596;2022-07-21T07:25:22;26.07;;;22.40;;
52962;SDS011;38827;53.024;6.596;2022-07-21T07:27:49;31.73;;;18.40;;
52962;SDS011;38827;53.024;6.596;2022-07-21T07:30:16;27.25;;;20.70;;
52962;SDS011;38827;53.024;6.596;2022-07-21T07:32:43;27.23;;;20.00;;
52962;SDS011;38827;53.024;6.596;2022-07-21T07:35:09;24.50;;;21.43;;
52962;SDS011;38827;53.024;6.596;2022-07-21T07:40:06;25.90;;;19.95;;
52962;SDS011;38827;53.024;6.596;2022-07-21T07:42:35;28.98;;;21.75;;
52962;SDS011;38827;53.024;6.596;2022-07-21T07:45:02;33.05;;;20.13;;
52962;SDS011;38827;53.024;6.596;2022-07-21T07:47:29;26.58;;;21.83;;
52962;SDS011;38827;53.024;6.596;2022-07-21T07:49:55;24.10;;;16.83;;
52962;SDS011;38827;53.024;6.596;2022-07-21T07:52:24;30.37;;;23.80;;
52962;SDS011;38827;53.024;6.596;2022-07-21T07:54:50;27.95;;;24.90;;
52962;SDS011;38827;53.024;6.596;2022-07-21T07:57:16;26.67;;;23.77;;
52962;SDS011;38827;53.024;6.596;2022-07-21T07:59:42;27.03;;;23.93;;
52962;SDS011;38827;53.024;6.596;2022-07-21T08:02:07;20.00;;;16.73;;
52962;SDS011;38827;53.024;6.596;2022-07-21T08:04:33;16.57;;;14.00;;
52962;SDS011;38827;53.024;6.596;2022-07-21T08:07:00;18.95;;;15.77;;
52962;SDS011;38827;53.024;6.596;2022-07-21T08:09:26;23.00;;;20.45;;
52962;SDS011;38827;53.024;6.596;2022-07-21T08:11:52;27.48;;;23.00;;
52962;SDS011;38827;53.024;6.596;2022-07-21T08:14:21;28.25;;;22.33;;
52962;SDS011;38827;53.024;6.596;2022-07-21T08:16:47;26.13;;;23.17;;
52962;SDS011;38827;53.024;6.596;2022-07-21T08:19:14;23.73;;;20.90;;
52962;SDS011;38827;53.024;6.596;2022-07-21T08:21:39;15.20;;;12.77;;
52962;SDS011;38827;53.024;6.596;2022-07-21T08:24:05;15.23;;;12.33;;
52962;SDS011;38827;53.024;6.596;2022-07-21T08:26:33;27.48;;;23.00;;
52962;SDS011;38827;53.024;6.596;2022-07-21T08:28:59;20.53;;;16.70;;
52962;SDS011;38827;53.024;6.596;2022-07-21T08:31:24;26.07;;;22.57;;
52962;SDS011;38827;53.024;6.596;2022-07-21T08:33:51;14.37;;;12.87;;
52962;SDS011;38827;53.024;6.596;2022-07-21T08:36:18;24.77;;;20.55;;
52962;SDS011;38827;53.024;6.596;2022-07-21T08:38:44;17.75;;;15.05;;
52962;SDS011;38827;53.024;6.596;2022-07-21T08:41:10;19.23;;;15.30;;
52962;SDS011;38827;53.024;6.596;2022-07-21T08:43:36;14.70;;;13.00;;
52962;SDS011;38827;53.024;6.596;2022-07-21T08:46:03;13.97;;;11.40;;
52962;SDS011;38827;53.024;6.596;2022-07-21T08:48:44;16.98;;;14.90;;
52962;SDS011;38827;53.024;6.596;2022-07-21T08:51:19;25.60;;;22.90;;
52962;SDS011;38827;53.024;6.596;2022-07-21T08:53:48;25.30;;;21.83;;
52962;SDS011;38827;53.024;6.596;2022-07-21T08:56:14;21.55;;;19.25;;
52962;SDS011;38827;53.024;6.596;2022-07-21T08:58:39;28.87;;;25.17;;
52962;SDS011;38827;53.024;6.596;2022-07-21T09:01:05;25.03;;;21.17;;
52962;SDS011;38827;53.024;6.596;2022-07-21T09:03:34;20.92;;;18.67;;
52962;SDS011;38827;53.024;6.596;2022-07-21T09:06:07;19.03;;;16.97;;
52962;SDS011;38827;53.024;6.596;2022-07-21T09:08:49;17.00;;;15.27;;
52962;SDS011;38827;53.024;6.596;2022-07-21T09:11:24;18.02;;;16.08;;
52962;SDS011;38827;53.024;6.596;2022-07-21T09:14:08;17.77;;;15.98;;
52962;SDS011;38827;53.024;6.596;2022-07-21T09:16:37;18.40;;;16.52;;
52962;SDS011;38827;53.024;6.596;2022-07-21T09:19:05;21.52;;;19.08;;
52962;SDS011;38827;53.024;6.596;2022-07-21T09:21:32;21.77;;;19.52;;
52962;SDS011;38827;53.024;6.596;2022-07-21T09:24:19;16.85;;;14.77;;
52962;SDS011;38827;53.024;6.596;2022-07-21T09:29:51;11.52;;;10.32;;
52962;SDS011;38827;53.024;6.596;2022-07-21T09:32:23;14.43;;;11.70;;
52962;SDS011;38827;53.024;6.596;2022-07-21T09:34:55;22.48;;;19.42;;
52962;SDS011;38827;53.024;6.596;2022-07-21T09:37:25;12.52;;;11.02;;
52962;SDS011;38827;53.024;6.596;2022-07-21T09:39:55;13.93;;;12.43;;
52962;SDS011;38827;53.024;6.596;2022-07-21T09:42:24;24.50;;;20.80;;
52962;SDS011;38827;53.024;6.596;2022-07-21T09:44:58;19.92;;;17.15;;
52962;SDS011;38827;53.024;6.596;2022-07-21T09:47:38;12.38;;;11.18;;
52962;SDS011;38827;53.024;6.596;2022-07-21T09:50:10;14.85;;;13.13;;
52962;SDS011;38827;53.024;6.596;2022-07-21T09:52:39;21.30;;;17.25;;
52962;SDS011;38827;53.024;6.596;2022-07-21T09:55:07;16.73;;;14.85;;
52962;SDS011;38827;53.024;6.596;2022-07-21T10:00:50;23.83;;;19.60;;
52962;SDS011;38827;53.024;6.596;2022-07-21T10:03:17;25.25;;;22.00;;
52962;SDS011;38827;53.024;6.596;2022-07-21T10:05:43;28.37;;;23.83;;
52962;SDS011;38827;53.024;6.596;2022-07-21T10:08:09;20.67;;;18.47;;
52962;SDS011;38827;53.024;6.596;2022-07-21T10:10:38;24.70;;;22.15;;
52962;SDS011;38827;53.024;6.596;2022-07-21T10:13:03;28.10;;;23.20;;
52962;SDS011;38827;53.024;6.596;2022-07-21T10:15:29;24.50;;;20.77;;
52962;SDS011;38827;53.024;6.596;2022-07-21T10:17:55;26.77;;;20.90;;
52962;SDS011;38827;53.024;6.596;2022-07-21T10:20:27;23.05;;;17.90;;
52962;SDS011;38827;53.024;6.596;2022-07-21T10:25:42;20.77;;;17.80;;
52962;SDS011;38827;53.024;6.596;2022-07-21T10:28:18;29.67;;;22.52;;
52962;SDS011;38827;53.024;6.596;2022-07-21T10:30:51;20.05;;;17.27;;
52962;SDS011;38827;53.024;6.596;2022-07-21T10:41:36;33.65;;;27.33;;
52962;SDS011;38827;53.024;6.596;2022-07-21T10:57:41;18.67;;;16.23;;
52962;SDS011;38827;53.024;6.596;2022-07-21T11:02:45;20.20;;;16.40;;
52962;SDS011;38827;53.024;6.596;2022-07-21T11:05:12;24.35;;;19.08;;
52962;SDS011;38827;53.024;6.596;2022-07-21T11:10:39;19.75;;;17.42;;
52962;SDS011;38827;53.024;6.596;2022-07-21T11:13:09;20.42;;;14.68;;
52962;SDS011;38827;53.024;6.596;2022-07-21T11:18:33;18.42;;;15.20;;
52962;SDS011;38827;53.024;6.596;2022-07-21T11:21:12;22.60;;;17.37;;
52962;SDS011;38827;53.024;6.596;2022-07-21T11:23:48;25.23;;;20.48;;
52962;SDS011;38827;53.024;6.596;2022-07-21T11:26:15;25.77;;;20.25;;
52962;SDS011;38827;53.024;6.596;2022-07-21T11:28:42;16.52;;;13.00;;
52962;SDS011;38827;53.024;6.596;2022-07-21T11:31:11;18.63;;;13.77;;
52962;SDS011;38827;53.024;6.596;2022-07-21T11:33:43;17.85;;;14.45;;
52962;SDS011;38827;53.024;6.596;2022-07-21T11:36:21;16.95;;;14.15;;
52962;SDS011;38827;53.024;6.596;2022-07-21T11:41:36;17.48;;;15.02;;
52962;SDS011;38827;53.024;6.596;2022-07-21T11:44:05;20.48;;;16.25;;
52962;SDS011;38827;53.024;6.596;2022-07-21T11:46:46;20.60;;;17.77;;
52962;SDS011;38827;53.024;6.596;2022-07-21T11:49:13;26.83;;;22.88;;
52962;SDS011;38827;53.024;6.596;2022-07-21T11:51:45;30.00;;;23.97;;
52962;SDS011;38827;53.024;6.596;2022-07-21T11:56:54;28.85;;;23.50;;
52962;SDS011;38827;53.024;6.596;2022-07-21T11:59:21;31.42;;;26.27;;
52962;SDS011;38827;53.024;6.596;2022-07-21T12:01:51;28.80;;;20.95;;
52962;SDS011;38827;53.024;6.596;2022-07-21T12:06:53;25.08;;;20.80;;
52962;SDS011;38827;53.024;6.596;2022-07-21T12:09:19;32.13;;;26.47;;
52962;SDS011;38827;53.024;6.596;2022-07-21T12:11:45;32.63;;;25.87;;
52962;SDS011;38827;53.024;6.596;2022-07-21T12:14:11;27.97;;;23.30;;
52962;SDS011;38827;53.024;6.596;2022-07-21T12:16:52;29.40;;;23.10;;
52962;SDS011;38827;53.024;6.596;2022-07-21T12:19:19;23.40;;;19.25;;
52962;SDS011;38827;53.024;6.596;2022-07-21T12:21:59;33.67;;;27.15;;
52962;SDS011;38827;53.024;6.596;2022-07-21T12:24:46;27.00;;;19.63;;
52962;SDS011;38827;53.024;6.596;2022-07-21T12:27:16;23.13;;;17.17;;
52962;SDS011;38827;53.024;6.596;2022-07-21T12:29:42;23.75;;;15.93;;
52962;SDS011;38827;53.024;6.596;2022-07-21T12:35:19;24.63;;;20.67;;
52962;SDS011;38827;53.024;6.596;2022-07-21T12:38:12;33.55;;;26.88;;
52962;SDS011;38827;53.024;6.596;2022-07-21T12:40:47;26.23;;;21.60;;
52962;SDS011;38827;53.024;6.596;2022-07-21T12:43:26;29.02;;;25.25;;
52962;SDS011;38827;53.024;6.596;2022-07-21T12:46:11;20.23;;;16.88;;
52962;SDS011;38827;53.024;6.596;2022-07-21T12:48:46;25.58;;;20.55;;
52962;SDS011;38827;53.024;6.596;2022-07-21T12:51:55;26.30;;;20.85;;
52962;SDS011;38827;53.024;6.596;2022-07-21T12:54:21;24.98;;;21.13;;
52962;SDS011;38827;53.024;6.596;2022-07-21T12:56:47;25.47;;;20.90;;
52962;SDS011;38827;53.024;6.596;2022-07-21T12:59:13;21.87;;;18.00;;
52962;SDS011;38827;53.024;6.596;2022-07-21T13:01:43;25.75;;;20.25;;
52962;SDS011;38827;53.024;6.596;2022-07-21T13:04:08;23.77;;;18.40;;
52962;SDS011;38827;53.024;6.596;2022-07-21T13:06:34;24.27;;;15.10;;
52962;SDS011;38827;53.024;6.596;2022-07-21T13:09:01;18.38;;;15.25;;
52962;SDS011;38827;53.024;6.596;2022-07-21T13:11:27;15.13;;;13.33;;
52962;SDS011;38827;53.024;6.596;2022-07-21T13:13:53;17.00;;;14.40;;
52962;SDS011;38827;53.024;6.596;2022-07-21T13:16:27;13.68;;;12.27;;
52962;SDS011;38827;53.024;6.596;2022-07-21T13:18:53;13.60;;;10.60;;
52962;SDS011;38827;53.024;6.596;2022-07-21T13:21:19;13.80;;;11.30;;
52962;SDS011;38827;53.024;6.596;2022-07-21T13:23:44;11.43;;;9.50;;
52962;SDS011;38827;53.024;6.596;2022-07-21T13:26:10;8.83;;;7.87;;
52962;SDS011;38827;53.024;6.596;2022-07-21T13:28:36;9.40;;;7.57;;
52962;SDS011;38827;53.024;6.596;2022-07-21T13:31:02;7.30;;;6.57;;
52962;SDS011;38827;53.024;6.596;2022-07-21T13:33:28;6.93;;;6.32;;
52962;SDS011;38827;53.024;6.596;2022-07-21T13:35:55;6.37;;;5.77;;
52962;SDS011;38827;53.024;6.596;2022-07-21T13:38:21;7.68;;;5.70;;
52962;SDS011;38827;53.024;6.596;2022-07-21T13:40:46;5.83;;;5.27;;
52962;SDS011;38827;53.024;6.596;2022-07-21T13:43:12;5.13;;;4.63;;
52962;SDS011;38827;53.024;6.596;2022-07-21T13:45:40;5.57;;;4.90;;
52962;SDS011;38827;53.024;6.596;2022-07-21T13:48:05;5.57;;;5.07;;
52962;SDS011;38827;53.024;6.596;2022-07-21T13:50:31;5.27;;;4.57;;
52962;SDS011;38827;53.024;6.596;2022-07-21T13:53:00;5.27;;;4.83;;
52962;SDS011;38827;53.024;6.596;2022-07-21T13:55:35;5.03;;;4.53;;
52962;SDS011;38827;53.024;6.596;2022-07-21T13:58:03;4.10;;;3.70;;
52962;SDS011;38827;53.024;6.596;2022-07-21T14:00:31;4.22;;;3.53;;
52962;SDS011;38827;53.024;6.596;2022-07-21T14:03:00;3.80;;;3.40;;
52962;SDS011;38827;53.024;6.596;2022-07-21T14:05:38;5.18;;;4.70;;
52962;SDS011;38827;53.024;6.596;2022-07-21T14:08:04;3.40;;;3.10;;
52962;SDS011;38827;53.024;6.596;2022-07-21T14:10:30;4.57;;;3.85;;
52962;SDS011;38827;53.024;6.596;2022-07-21T14:13:09;4.63;;;4.20;;
52962;SDS011;38827;53.024;6.596;2022-07-21T14:15:35;3.72;;;3.35;;
52962;SDS011;38827;53.024;6.596;2022-07-21T14:18:00;5.73;;;5.20;;
52962;SDS011;38827;53.024;6.596;2022-07-21T14:20:26;5.00;;;4.57;;
52962;SDS011;38827;53.024;6.596;2022-07-21T14:22:52;4.90;;;4.50;;
52962;SDS011;38827;53.024;6.596;2022-07-21T14:25:18;8.48;;;7.55;;
52962;SDS011;38827;53.024;6.596;2022-07-21T14:27:51;9.00;;;8.20;;
52962;SDS011;38827;53.024;6.596;2022-07-21T14:30:20;6.63;;;5.28;;
52962;SDS011;38827;53.024;6.596;2022-07-21T14:32:47;4.82;;;4.32;;
52962;SDS011;38827;53.024;6.596;2022-07-21T14:35:25;8.50;;;7.70;;
52962;SDS011;38827;53.024;6.596;2022-07-21T14:37:52;5.28;;;4.70;;
52962;SDS011;38827;53.024;6.596;2022-07-21T14:40:19;8.20;;;6.63;;
52962;SDS011;38827;53.024;6.596;2022-07-21T14:42:58;4.20;;;3.80;;
52962;SDS011;38827;53.024;6.596;2022-07-21T14:45:26;5.53;;;4.20;;
52962;SDS011;38827;53.024;6.596;2022-07-21T14:47:53;6.75;;;5.65;;
52962;SDS011;38827;53.024;6.596;2022-07-21T14:50:20;5.95;;;5.13;;
52962;SDS011;38827;53.024;6.596;2022-07-21T14:52:47;5.00;;;4.50;;
52962;SDS011;38827;53.024;6.596;2022-07-21T14:55:13;4.20;;;3.23;;
52962;SDS011;38827;53.024;6.596;2022-07-21T14:57:48;6.10;;;5.50;;
52962;SDS011;38827;53.024;6.596;2022-07-21T15:00:18;4.67;;;3.83;;
52962;SDS011;38827;53.024;6.596;2022-07-21T15:02:44;4.47;;;3.92;;
52962;SDS011;38827;53.024;6.596;2022-07-21T15:05:13;7.47;;;6.65;;
52962;SDS011;38827;53.024;6.596;2022-07-21T15:07:39;10.40;;;7.20;;
52962;SDS011;38827;53.024;6.596;2022-07-21T15:10:22;9.80;;;7.53;;
52962;SDS011;38827;53.024;6.596;2022-07-21T15:12:56;4.20;;;3.80;;
52962;SDS011;38827;53.024;6.596;2022-07-21T15:15:25;7.32;;;6.53;;
52962;SDS011;38827;53.024;6.596;2022-07-21T15:17:54;5.10;;;4.50;;
52962;SDS011;38827;53.024;6.596;2022-07-21T15:20:19;3.80;;;3.40;;
52962;SDS011;38827;53.024;6.596;2022-07-21T15:22:45;5.27;;;4.50;;
52962;SDS011;38827;53.024;6.596;2022-07-21T15:25:18;5.28;;;3.65;;
52962;SDS011;38827;53.024;6.596;2022-07-21T15:27:43;6.38;;;5.70;;
52962;SDS011;38827;53.024;6.596;2022-07-21T15:30:11;6.27;;;4.10;;
52962;SDS011;38827;53.024;6.596;2022-07-21T15:32:43;7.55;;;4.53;;
52962;SDS011;38827;53.024;6.596;2022-07-21T15:35:09;6.10;;;3.95;;
52962;SDS011;38827;53.024;6.596;2022-07-21T15:37:36;3.88;;;3.47;;
52962;SDS011;38827;53.024;6.596;2022-07-21T15:42:52;7.47;;;6.15;;
52962;SDS011;38827;53.024;6.596;2022-07-21T15:45:30;6.30;;;5.17;;
52962;SDS011;38827;53.024;6.596;2022-07-21T15:48:02;5.53;;;4.95;;
52962;SDS011;38827;53.024;6.596;2022-07-21T15:50:31;4.90;;;4.10;;